Time;durP1;ratioP1;P1;durP2;ratioP2;P2;SDS_P1;SDS_P2;PMS_P1;PMS_P2;Temp;Humidity;BMP_temperature;BMP_pressure;BME280_temperature;BME280_humidity;BME280_pressure;Samples;Min_cycle;Max_cycle;Signal;HPM_P1;HPM_P2
2022/10/25 00:03:32;;;;;;;3.20;1.92;;;14.70;99.90;;;;;;10456600;28;20506;-62
2022/10/25 00:08:32;;;;;;;7.93;2.58;;;14.70;99.90;;;;;;10454251;28;20555;-63
2022/10/25 00:13:33;;;;;;;4.72;2.13;;;14.70;99.90;;;;;;10452478;28;20037;-63
2022/10/25 00:18:34;;;;;;;3.95;2.40;;;14.70;99.90;;;;;;10457973;28;20063;-62
2022/10/25 00:23:35;;;;;;;4.55;2.40;;;14.70;99.90;;;;;;10458130;28;20128;-62
2022/10/25 00:28:36;;;;;;;4.60;2.42;;;14.70;99.90;;;;;;10455388;28;20021;-62
2022/10/25 00:33:38;;;;;;;4.85;2.40;;;14.70;99.90;;;;;;10447887;28;20094;-62
2022/10/25 00:38:39;;;;;;;4.40;2.30;;;14.70;99.90;;;;;;10448873;28;20120;-62
2022/10/25 00:43:49;;;;;;;3.47;2.13;;;14.70;99.90;;;;;;10452400;28;20044;-63
2022/10/25 00:48:56;;;;;;;4.05;2.30;;;14.70;99.90;;;;;;10455883;28;20025;-62
2022/10/25 00:53:56;;;;;;;4.85;2.60;;;14.70;99.90;;;;;;10450863;28;20033;-62
2022/10/25 00:59:05;;;;;;;4.65;2.33;;;14.70;99.90;;;;;;10466877;28;20025;-62
2022/10/25 01:04:10;;;;;;;4.25;2.33;;;14.60;99.90;;;;;;10460962;28;20063;-66
2022/10/25 01:09:15;;;;;;;4.82;2.28;;;14.70;99.90;;;;;;10463877;28;20144;-62
2022/10/25 01:14:17;;;;;;;4.20;2.00;;;14.70;99.90;;;;;;10461772;28;20032;-62
2022/10/25 01:19:39;;;;;;;2.35;1.85;;;14.70;99.90;;;;;;10458506;28;20021;-62
2022/10/25 01:25:12;;;;;;;3.92;2.05;;;14.70;99.90;;;;;;10461918;28;20030;-62
2022/10/25 01:30:25;;;;;;;3.20;2.10;;;14.70;99.90;;;;;;10458187;28;20033;-62
2022/10/25 01:35:41;;;;;;;1.98;1.70;;;14.70;99.90;;;;;;10457700;28;20041;-63
2022/10/25 01:40:57;;;;;;;5.35;2.30;;;14.70;99.90;;;;;;10457271;28;20034;-62
2022/10/25 01:46:14;;;;;;;3.88;1.90;;;14.60;99.90;;;;;;10460425;28;20244;-62
2022/10/25 01:51:17;;;;;;;2.85;2.10;;;14.70;99.90;;;;;;10461148;28;20017;-62
2022/10/25 01:56:26;;;;;;;3.45;2.05;;;14.60;99.90;;;;;;10462727;28;20071;-62
2022/10/25 02:01:42;;;;;;;5.20;2.10;;;14.70;99.90;;;;;;10461823;28;20104;-62
2022/10/25 02:07:03;;;;;;;3.47;1.60;;;14.70;99.90;;;;;;10457169;28;20490;-62
2022/10/25 02:12:09;;;;;;;2.88;1.58;;;14.70;99.90;;;;;;10457415;28;20071;-65
2022/10/25 02:17:21;;;;;;;3.38;1.98;;;14.60;99.90;;;;;;10460244;28;20032;-63
2022/10/25 02:22:27;;;;;;;2.70;1.67;;;14.70;99.90;;;;;;10455955;28;20024;-62
2022/10/25 02:27:30;;;;;;;3.08;1.70;;;14.70;99.90;;;;;;10460176;28;20429;-62
2022/10/25 02:32:31;;;;;;;2.47;1.80;;;14.70;99.90;;;;;;10456310;28;20443;-64
2022/10/25 02:37:31;;;;;;;3.15;2.05;;;14.70;99.90;;;;;;10456746;28;20317;-62
2022/10/25 02:42:32;;;;;;;5.88;2.13;;;14.60;99.90;;;;;;10459716;28;20021;-63
2022/10/25 02:47:33;;;;;;;3.00;1.70;;;14.60;99.90;;;;;;10459793;28;20389;-62
2022/10/25 02:52:34;;;;;;;4.50;1.88;;;14.60;99.90;;;;;;10457594;28;20119;-62
2022/10/25 02:57:36;;;;;;;2.58;1.70;;;14.60;99.90;;;;;;10458858;28;21090;-62
2022/10/25 03:02:37;;;;;;;3.42;1.60;;;14.60;99.90;;;;;;10454616;28;20026;-63
2022/10/25 03:07:37;;;;;;;5.72;2.05;;;14.60;99.90;;;;;;10457789;28;20048;-65
2022/10/25 03:12:38;;;;;;;4.25;2.35;;;14.60;99.90;;;;;;10455820;28;20471;-62
2022/10/25 03:17:39;;;;;;;3.97;1.90;;;14.60;99.90;;;;;;10458017;28;20490;-63
2022/10/25 03:22:39;;;;;;;3.47;2.10;;;14.60;99.90;;;;;;10463198;28;20025;-62
2022/10/25 03:27:40;;;;;;;5.32;2.00;;;14.60;99.90;;;;;;10453309;28;20043;-62
2022/10/25 03:32:41;;;;;;;3.45;1.90;;;14.60;99.90;;;;;;10456536;28;20032;-62
2022/10/25 03:37:42;;;;;;;3.92;1.95;;;14.70;99.90;;;;;;10454886;28;20032;-62
2022/10/25 03:42:43;;;;;;;2.45;2.00;;;14.60;99.90;;;;;;10458556;28;20548;-62
2022/10/25 03:47:44;;;;;;;3.60;1.80;;;14.60;99.90;;;;;;10456460;28;20025;-63
2022/10/25 03:52:44;;;;;;;4.00;2.08;;;14.60;99.90;;;;;;10456874;28;20042;-61
2022/10/25 03:57:45;;;;;;;8.18;2.50;;;14.60;99.90;;;;;;10457392;28;20035;-62
2022/10/25 04:02:46;;;;;;;2.88;1.73;;;14.60;99.90;;;;;;10456061;28;20096;-62
2022/10/25 04:07:47;;;;;;;5.53;1.67;;;14.60;99.90;;;;;;10455622;28;20049;-63
2022/10/25 04:12:48;;;;;;;3.60;1.83;;;14.60;99.90;;;;;;10456082;28;20028;-62
2022/10/25 04:17:49;;;;;;;5.88;2.35;;;14.60;99.90;;;;;;10455201;28;20024;-62
2022/10/25 04:23:00;;;;;;;3.97;2.25;;;14.60;99.90;;;;;;10455442;28;20024;-63
2022/10/25 04:28:00;;;;;;;4.18;2.33;;;14.60;99.90;;;;;;10458860;28;20448;-63
2022/10/25 04:33:01;;;;;;;3.45;1.90;;;14.60;99.90;;;;;;10456428;28;20367;-62
2022/10/25 04:38:02;;;;;;;2.60;2.10;;;14.60;99.90;;;;;;10458035;28;20025;-63
2022/10/25 04:43:02;;;;;;;3.70;2.03;;;14.60;99.90;;;;;;10455071;28;20036;-63
2022/10/25 04:48:03;;;;;;;4.10;1.85;;;14.60;99.90;;;;;;10455717;28;20558;-65
2022/10/25 04:53:04;;;;;;;3.55;2.55;;;14.60;99.90;;;;;;10453154;28;20047;-63
2022/10/25 04:58:05;;;;;;;3.33;1.60;;;14.60;99.90;;;;;;10448338;28;20044;-63
2022/10/25 05:03:06;;;;;;;4.22;1.70;;;14.60;99.90;;;;;;10452875;28;20111;-62
2022/10/25 05:08:07;;;;;;;2.60;1.80;;;14.60;99.90;;;;;;10453790;28;20136;-62
2022/10/25 05:13:07;;;;;;;3.17;1.88;;;14.60;99.90;;;;;;10453550;28;20481;-62
2022/10/25 05:18:08;;;;;;;4.60;1.88;;;14.60;99.90;;;;;;10451119;28;20116;-62
2022/10/25 05:23:09;;;;;;;2.03;1.83;;;14.60;99.90;;;;;;10449706;28;20487;-62
2022/10/25 05:28:10;;;;;;;3.25;1.73;;;14.60;99.90;;;;;;10441191;28;20051;-61
2022/10/25 05:33:11;;;;;;;4.07;1.83;;;14.50;99.90;;;;;;10439328;28;20025;-62
2022/10/25 05:38:11;;;;;;;4.20;1.80;;;14.60;99.90;;;;;;10450116;28;20039;-63
2022/10/25 05:43:12;;;;;;;5.53;2.15;;;14.50;99.90;;;;;;10455737;28;20032;-63
2022/10/25 05:48:13;;;;;;;3.80;1.90;;;14.50;99.90;;;;;;10458927;28;20021;-62
2022/10/25 05:53:13;;;;;;;2.65;1.77;;;14.50;99.90;;;;;;10458770;28;20064;-62
2022/10/25 05:58:14;;;;;;;2.55;1.77;;;14.50;99.90;;;;;;10459249;28;20103;-62
2022/10/25 06:03:15;;;;;;;2.30;1.65;;;14.50;99.90;;;;;;10440661;28;20501;-61
2022/10/25 06:08:16;;;;;;;5.80;2.28;;;14.50;99.90;;;;;;10455665;28;20397;-62
2022/10/25 06:13:16;;;;;;;4.45;1.77;;;14.50;99.90;;;;;;10456188;28;20127;-62
2022/10/25 06:18:17;;;;;;;2.53;1.80;;;14.50;99.90;;;;;;10455170;28;20029;-62
2022/10/25 06:23:18;;;;;;;6.22;3.03;;;14.50;99.90;;;;;;10457155;28;20025;-62
2022/10/25 06:28:19;;;;;;;8.82;2.92;;;14.50;99.90;;;;;;10460990;28;20512;-64
2022/10/25 06:33:19;;;;;;;10.95;3.00;;;14.50;99.90;;;;;;10458645;28;20086;-67
2022/10/25 06:38:20;;;;;;;5.85;2.88;;;14.50;99.90;;;;;;10462392;28;20093;-61
2022/10/25 06:43:21;;;;;;;12.35;3.42;;;14.50;99.90;;;;;;10378811;28;20268;-61
2022/10/25 06:48:22;;;;;;;9.88;2.97;;;14.50;99.90;;;;;;10383529;28;20094;-61
2022/10/25 06:53:23;;;;;;;9.82;3.05;;;14.50;99.90;;;;;;10379622;28;20476;-61
2022/10/25 06:58:23;;;;;;;7.03;2.80;;;14.50;99.90;;;;;;10383482;28;20067;-61
2022/10/25 07:03:29;;;;;;;4.72;2.58;;;14.50;99.90;;;;;;10375777;28;20077;-61
2022/10/25 07:08:30;;;;;;;5.97;3.08;;;14.50;99.90;;;;;;10377590;28;20110;-62
2022/10/25 07:13:32;;;;;;;4.20;2.60;;;14.50;99.90;;;;;;10377738;28;20114;-61
2022/10/25 07:18:33;;;;;;;5.55;2.70;;;14.50;99.90;;;;;;10370377;28;20127;-61
2022/10/25 07:23:40;;;;;;;7.35;2.33;;;14.60;99.90;;;;;;10376499;28;20028;-61
2022/10/25 07:28:43;;;;;;;7.07;2.40;;;14.60;99.90;;;;;;10377222;28;20040;-61
2022/10/25 07:33:44;;;;;;;6.65;2.40;;;14.60;99.90;;;;;;10374779;28;20762;-61
2022/10/25 07:38:45;;;;;;;5.43;2.90;;;14.70;99.90;;;;;;10377169;28;20171;-61
2022/10/25 07:43:46;;;;;;;6.75;2.90;;;14.60;99.90;;;;;;10377006;28;20593;-61
2022/10/25 07:48:47;;;;;;;5.25;2.60;;;14.70;99.90;;;;;;10379456;28;20112;-61
2022/10/25 07:53:48;;;;;;;6.10;2.95;;;14.70;99.90;;;;;;10377027;28;20044;-62
2022/10/25 07:58:50;;;;;;;8.00;2.95;;;14.70;99.90;;;;;;10376959;28;20033;-61
2022/10/25 08:03:52;;;;;;;5.40;2.72;;;14.70;99.90;;;;;;10374939;28;20031;-61
2022/10/25 08:08:55;;;;;;;4.95;2.53;;;14.70;99.90;;;;;;10381933;28;20773;-62
2022/10/25 08:13:55;;;;;;;8.27;3.45;;;14.70;99.90;;;;;;10377065;28;20103;-61
2022/10/25 08:18:56;;;;;;;4.45;2.70;;;14.80;99.90;;;;;;10381854;28;20033;-61
2022/10/25 08:23:57;;;;;;;7.45;3.13;;;14.90;99.90;;;;;;10380961;28;20274;-61
2022/10/25 08:28:57;;;;;;;4.78;2.78;;;14.90;99.90;;;;;;10379343;28;20055;-61
2022/10/25 08:33:59;;;;;;;7.00;3.10;;;15.00;99.90;;;;;;10378830;28;20076;-62
2022/10/25 08:39:00;;;;;;;6.88;2.92;;;15.00;99.90;;;;;;10371606;28;20072;-61
2022/10/25 08:44:03;;;;;;;5.90;3.08;;;15.00;99.90;;;;;;10370890;28;20029;-61
2022/10/25 08:49:17;;;;;;;6.03;3.20;;;15.00;99.90;;;;;;10377597;28;20037;-61
2022/10/25 08:54:34;;;;;;;7.05;3.13;;;15.00;99.90;;;;;;10381980;28;20044;-60
2022/10/25 08:59:38;;;;;;;5.00;2.80;;;15.10;99.90;;;;;;10377879;28;20063;-60
2022/10/25 09:04:39;;;;;;;6.20;3.00;;;15.10;99.90;;;;;;10386758;28;20021;-61
2022/10/25 09:10:16;;;;;;;5.68;2.97;;;15.10;99.90;;;;;;10376794;28;20282;-60
2022/10/25 09:15:37;;;;;;;6.35;3.03;;;15.10;99.90;;;;;;10374472;28;20045;-62
2022/10/25 09:20:50;;;;;;;5.07;2.72;;;15.20;99.90;;;;;;10388994;28;20060;-64
2022/10/25 09:26:20;;;;;;;6.93;2.83;;;15.20;99.90;;;;;;10378885;28;20344;-60
2022/10/25 09:31:24;;;;;;;6.10;2.90;;;15.30;99.90;;;;;;10381693;28;20083;-60
2022/10/25 09:36:32;;;;;;;4.65;2.60;;;15.30;99.90;;;;;;10363110;28;20041;-60
2022/10/25 09:41:42;;;;;;;7.15;2.97;;;15.30;99.90;;;;;;10386357;28;20827;-60
2022/10/25 09:46:46;;;;;;;5.60;2.42;;;15.30;99.90;;;;;;10381762;28;20021;-61
2022/10/25 09:51:49;;;;;;;6.53;3.20;;;15.30;99.90;;;;;;10393335;28;20532;-60
2022/10/25 09:56:50;;;;;;;4.32;2.65;;;15.30;99.90;;;;;;10385976;28;20028;-61
2022/10/25 10:01:51;;;;;;;3.78;2.40;;;15.30;99.90;;;;;;10383240;28;20046;-65
2022/10/25 10:06:56;;;;;;;6.15;2.78;;;15.30;99.90;;;;;;10385235;28;20159;-60
2022/10/25 10:12:02;;;;;;;4.93;3.05;;;15.30;99.90;;;;;;10379108;28;20036;-60
2022/10/25 10:17:06;;;;;;;3.42;2.22;;;15.30;99.90;;;;;;10381288;28;20123;-61
2022/10/25 10:22:11;;;;;;;5.68;3.28;;;15.30;99.90;;;;;;10384208;28;20028;-60
2022/10/25 10:27:21;;;;;;;6.05;2.75;;;15.40;99.90;;;;;;10385925;28;20025;-60
2022/10/25 10:32:30;;;;;;;6.38;2.80;;;15.40;99.90;;;;;;10373466;28;20038;-60
2022/10/25 10:37:33;;;;;;;6.03;2.80;;;15.40;99.90;;;;;;10381599;28;20497;-60
2022/10/25 10:42:36;;;;;;;5.13;2.40;;;15.50;99.90;;;;;;10370967;28;21211;-61
2022/10/25 10:47:50;;;;;;;6.88;2.53;;;15.50;99.90;;;;;;10371048;28;20488;-61
2022/10/25 10:53:05;;;;;;;5.85;2.88;;;15.50;99.90;;;;;;10383059;28;20928;-61
2022/10/25 10:58:18;;;;;;;4.07;2.45;;;15.60;99.90;;;;;;10381844;28;20475;-60
2022/10/25 11:03:40;;;;;;;7.05;2.47;;;15.60;99.90;;;;;;10381691;28;20147;-61
2022/10/25 11:08:46;;;;;;;6.63;2.85;;;15.60;99.90;;;;;;10379779;28;20072;-60
2022/10/25 11:13:55;;;;;;;8.13;2.63;;;15.70;99.90;;;;;;10378373;28;20472;-61
2022/10/25 11:19:02;;;;;;;6.75;2.60;;;15.70;99.90;;;;;;10379461;28;20147;-65
2022/10/25 11:24:22;;;;;;;3.25;2.17;;;15.60;99.90;;;;;;10381266;28;20037;-61
2022/10/25 11:29:45;;;;;;;3.42;2.17;;;15.70;99.90;;;;;;10384553;28;20765;-61
2022/10/25 11:34:55;;;;;;;4.90;2.58;;;15.70;99.90;;;;;;10334385;28;20122;-61
2022/10/25 11:40:29;;;;;;;6.15;2.35;;;15.70;99.90;;;;;;10382165;28;20068;-61
2022/10/25 11:45:47;;;;;;;3.03;2.30;;;15.70;99.90;;;;;;10371816;28;21031;-61
2022/10/25 11:51:06;;;;;;;5.53;2.65;;;15.70;99.90;;;;;;10369310;28;20270;-61
2022/10/25 11:56:34;;;;;;;3.90;2.42;;;15.80;99.90;;;;;;10379858;28;20056;-62
2022/10/25 12:01:39;;;;;;;;;;;15.80;99.90;;;;;;10377854;28;20059;-60
2022/10/25 12:07:06;;;;;;;6.45;2.30;;;15.70;99.90;;;;;;10378366;28;19920;-60
2022/10/25 12:12:15;;;;;;;6.43;2.65;;;15.80;99.90;;;;;;10363929;28;20048;-60
2022/10/25 12:17:29;;;;;;;5.00;2.60;;;16.30;99.90;;;;;;10376711;28;20059;-61
2022/10/25 12:22:38;;;;;;;5.55;2.40;;;16.00;99.90;;;;;;10385711;28;20552;-61
2022/10/25 12:27:41;;;;;;;5.55;2.22;;;16.00;99.90;;;;;;10377513;28;20056;-60
2022/10/25 12:32:51;;;;;;;6.07;2.35;;;16.00;99.90;;;;;;10376349;28;20033;-61
2022/10/25 12:37:58;;;;;;;5.22;2.85;;;16.00;99.90;;;;;;10382499;28;20852;-61
2022/10/25 12:43:19;;;;;;;5.47;2.47;;;16.00;99.90;;;;;;10368893;28;20135;-61
2022/10/25 12:48:28;;;;;;;3.42;2.33;;;16.00;99.90;;;;;;10383566;28;20395;-70
2022/10/25 12:53:32;;;;;;;5.70;2.40;;;16.00;99.90;;;;;;10383063;28;20041;-61
2022/10/25 12:59:01;;;;;;;9.57;2.35;;;16.00;99.90;;;;;;10382440;28;20592;-61
2022/10/25 13:04:18;;;;;;;4.63;2.30;;;16.00;99.90;;;;;;10381489;28;20777;-61
2022/10/25 13:09:20;;;;;;;4.20;2.42;;;16.00;99.90;;;;;;10376730;28;20057;-69
2022/10/25 13:14:29;;;;;;;3.67;2.10;;;16.10;99.90;;;;;;10367580;28;20048;-61
2022/10/25 13:19:31;;;;;;;5.93;2.20;;;16.00;99.90;;;;;;10383355;28;20091;-62
2022/10/25 13:24:42;;;;;;;3.92;2.20;;;16.00;99.90;;;;;;10384094;28;20036;-61
2022/10/25 13:30:05;;;;;;;3.75;2.42;;;16.10;99.90;;;;;;10381383;28;20098;-61
2022/10/25 13:35:21;;;;;;;3.45;2.13;;;16.20;99.90;;;;;;10377358;28;20661;-61
2022/10/25 13:40:29;;;;;;;4.50;2.20;;;15.90;99.90;;;;;;10360530;28;20036;-62
2022/10/25 13:45:39;;;;;;;5.88;2.33;;;16.20;99.90;;;;;;10375648;28;20154;-62
2022/10/25 13:50:52;;;;;;;3.97;2.53;;;16.20;99.90;;;;;;10378212;28;20455;-62
2022/10/25 13:56:02;;;;;;;3.67;2.20;;;16.30;99.90;;;;;;10392693;28;20161;-62
2022/10/25 14:01:15;;;;;;;3.17;2.30;;;16.30;99.90;;;;;;10377693;28;20107;-62
2022/10/25 14:06:25;;;;;;;5.93;2.83;;;16.30;99.90;;;;;;10387348;28;20486;-63
2022/10/25 14:11:31;;;;;;;5.88;2.13;;;16.30;99.90;;;;;;10370128;28;21208;-63
2022/10/25 14:16:39;;;;;;;3.75;2.50;;;16.30;99.90;;;;;;10370459;28;20049;-62
2022/10/25 14:21:48;;;;;;;2.97;2.20;;;16.30;99.90;;;;;;10381299;28;20032;-63
2022/10/25 14:26:55;;;;;;;4.15;2.20;;;16.40;99.90;;;;;;10401937;28;20634;-63
2022/10/25 14:31:57;;;;;;;5.18;2.28;;;16.50;99.90;;;;;;10381149;28;20476;-69
2022/10/25 14:36:59;;;;;;;8.27;2.70;;;16.50;99.90;;;;;;10372210;28;20033;-63
2022/10/25 14:42:01;;;;;;;3.75;2.30;;;16.50;99.90;;;;;;10376449;28;20040;-62
2022/10/25 14:47:02;;;;;;;5.82;2.47;;;16.50;99.90;;;;;;10372906;28;20064;-62
2022/10/25 14:52:05;;;;;;;4.60;2.35;;;16.60;99.90;;;;;;10375437;28;20245;-62
2022/10/25 14:57:09;;;;;;;5.15;2.40;;;16.60;99.90;;;;;;10384738;28;20604;-62
2022/10/25 15:02:18;;;;;;;4.00;2.65;;;16.60;99.90;;;;;;10376808;28;20036;-61
2022/10/25 15:07:23;;;;;;;2.78;2.03;;;16.60;99.90;;;;;;10384243;28;20108;-62
2022/10/25 15:12:28;;;;;;;5.20;2.40;;;16.60;99.90;;;;;;10356078;28;20389;-64
2022/10/25 15:17:30;;;;;;;2.58;1.92;;;16.60;99.90;;;;;;10356082;28;20479;-61
2022/10/25 15:22:36;;;;;;;4.85;2.30;;;16.50;99.90;;;;;;10357051;28;20643;-62
2022/10/25 15:27:42;;;;;;;4.30;2.28;;;16.50;99.90;;;;;;10377495;28;20036;-63
2022/10/25 15:32:43;;;;;;;5.05;2.65;;;16.50;99.90;;;;;;10373890;28;20158;-61
2022/10/25 15:37:43;;;;;;;5.70;2.35;;;16.40;99.90;;;;;;10373353;28;20152;-61
2022/10/25 15:42:44;;;;;;;3.20;2.40;;;16.40;99.90;;;;;;10382668;28;20021;-61
2022/10/25 15:47:46;;;;;;;9.25;3.40;;;16.40;99.90;;;;;;10376093;28;20029;-68
2022/10/25 15:52:47;;;;;;;5.43;2.40;;;16.40;99.90;;;;;;10374390;28;20025;-60
2022/10/25 15:57:48;;;;;;;3.45;2.22;;;16.30;99.90;;;;;;10390858;28;20055;-60
2022/10/25 16:02:50;;;;;;;4.05;2.22;;;16.30;99.90;;;;;;10378316;28;21326;-64
2022/10/25 16:07:51;;;;;;;4.80;3.00;;;16.30;99.90;;;;;;10375302;28;20044;-64
2022/10/25 16:13:03;;;;;;;5.97;2.63;;;16.20;99.90;;;;;;10358888;28;20025;-63
2022/10/25 16:18:04;;;;;;;4.40;2.55;;;16.20;99.90;;;;;;10355185;28;20048;-62
2022/10/25 16:23:05;;;;;;;5.72;3.33;;;16.20;99.90;;;;;;10380040;28;20029;-65
2022/10/25 16:28:11;;;;;;;7.43;4.15;;;16.20;99.90;;;;;;10377738;28;20025;-61
2022/10/25 16:33:12;;;;;;;6.22;4.43;;;16.00;99.90;;;;;;10363305;28;20273;-60
2022/10/25 16:38:15;;;;;;;6.32;4.00;;;15.90;99.90;;;;;;10342296;28;20061;-61
2022/10/25 16:43:16;;;;;;;7.35;3.78;;;15.90;99.90;;;;;;10355343;28;20401;-61
2022/10/25 16:48:16;;;;;;;6.05;4.40;;;15.90;99.90;;;;;;10392141;28;20031;-62
2022/10/25 16:53:17;;;;;;;9.10;4.65;;;15.90;99.90;;;;;;10431025;28;20033;-68
2022/10/25 16:58:18;;;;;;;7.85;3.95;;;15.90;99.90;;;;;;10431077;28;20029;-61
2022/10/25 17:03:19;;;;;;;7.47;4.05;;;15.90;99.90;;;;;;10424369;28;20018;-62
2022/10/25 17:08:20;;;;;;;7.22;4.20;;;15.80;99.90;;;;;;10429246;28;20059;-61
2022/10/25 17:13:20;;;;;;;8.63;4.38;;;15.80;99.90;;;;;;10427864;28;20033;-62
2022/10/25 17:18:25;;;;;;;7.32;4.97;;;15.80;99.90;;;;;;10432184;28;20029;-62
2022/10/25 17:23:26;;;;;;;6.82;3.97;;;15.80;99.90;;;;;;10442332;28;20121;-62
2022/10/25 17:28:28;;;;;;;7.03;4.45;;;15.80;99.90;;;;;;10428731;28;20025;-61
2022/10/25 17:33:30;;;;;;;7.95;4.75;;;15.70;99.90;;;;;;10436364;28;20033;-61
2022/10/25 17:38:31;;;;;;;7.55;4.50;;;15.80;99.90;;;;;;10447958;28;20115;-62
2022/10/25 17:43:36;;;;;;;5.40;4.13;;;15.70;99.90;;;;;;10449217;28;20024;-62
2022/10/25 17:48:37;;;;;;;6.68;4.40;;;15.70;99.90;;;;;;10449106;28;20111;-62
2022/10/25 17:53:38;;;;;;;10.38;4.97;;;15.70;99.90;;;;;;10455746;28;20485;-62
2022/10/25 17:58:42;;;;;;;7.32;4.30;;;15.70;99.90;;;;;;10450813;28;20382;-61
2022/10/25 18:03:43;;;;;;;6.45;4.47;;;15.70;99.90;;;;;;10437452;28;20482;-62
2022/10/25 18:08:44;;;;;;;10.07;5.30;;;15.70;99.90;;;;;;10455393;28;20032;-62
2022/10/25 18:13:45;;;;;;;6.22;4.63;;;15.60;99.90;;;;;;10442474;28;20036;-61
2022/10/25 18:18:45;;;;;;;9.30;5.05;;;15.60;99.90;;;;;;10439436;28;20071;-61
2022/10/25 18:23:46;;;;;;;8.57;4.55;;;15.60;99.90;;;;;;10442279;28;20037;-62
2022/10/25 18:28:48;;;;;;;9.18;5.22;;;15.60;99.90;;;;;;10427188;28;20025;-62
2022/10/25 18:33:49;;;;;;;6.68;4.57;;;15.60;99.90;;;;;;10422872;28;20033;-62
2022/10/25 18:38:50;;;;;;;7.78;4.35;;;15.50;99.90;;;;;;10426679;28;20030;-62
2022/10/25 18:43:53;;;;;;;10.80;4.80;;;15.60;99.90;;;;;;10431166;28;20351;-61
2022/10/25 18:48:56;;;;;;;7.78;4.53;;;15.50;99.90;;;;;;10434480;28;20501;-61
2022/10/25 18:53:59;;;;;;;7.55;3.88;;;15.50;99.90;;;;;;10428546;28;20048;-62
2022/10/25 18:58:59;;;;;;;11.00;4.38;;;15.50;99.90;;;;;;10432382;28;20025;-62
2022/10/25 19:04:02;;;;;;;7.63;4.88;;;15.50;99.90;;;;;;10426208;28;20051;-62
2022/10/25 19:09:03;;;;;;;7.45;4.45;;;15.50;99.90;;;;;;10427339;28;20101;-68
2022/10/25 19:14:04;;;;;;;7.13;3.90;;;15.50;99.90;;;;;;10446907;28;20411;-64
2022/10/25 19:19:10;;;;;;;5.72;3.88;;;15.50;99.90;;;;;;10434839;28;20115;-62
2022/10/25 19:24:14;;;;;;;6.47;3.95;;;15.50;99.90;;;;;;10443989;28;20111;-65
2022/10/25 19:29:15;;;;;;;6.78;4.10;;;15.50;99.90;;;;;;10440162;28;20072;-63
2022/10/25 19:34:16;;;;;;;6.32;3.90;;;15.40;99.90;;;;;;10441103;28;20127;-62
2022/10/25 19:39:16;;;;;;;6.13;4.13;;;15.40;99.90;;;;;;10451365;28;20032;-62
2022/10/25 19:44:17;;;;;;;5.95;3.97;;;15.40;99.90;;;;;;10450121;28;20020;-62
2022/10/25 19:49:18;;;;;;;4.88;3.42;;;15.40;99.90;;;;;;10432664;28;20396;-63
2022/10/25 19:54:19;;;;;;;7.85;3.92;;;15.40;99.90;;;;;;10425161;28;20040;-63
2022/10/25 19:59:20;;;;;;;7.72;3.63;;;15.30;99.90;;;;;;10427207;28;20090;-61
2022/10/25 20:04:20;;;;;;;8.52;3.65;;;15.30;99.90;;;;;;10431431;28;20035;-62
2022/10/25 20:09:21;;;;;;;7.97;4.00;;;15.30;99.90;;;;;;10429787;28;20084;-62
2022/10/25 20:14:22;;;;;;;6.07;3.22;;;15.30;99.90;;;;;;10424718;28;20199;-62
2022/10/25 20:19:23;;;;;;;9.95;3.55;;;15.30;99.90;;;;;;10432110;28;20036;-62
2022/10/25 20:24:25;;;;;;;6.40;3.72;;;15.20;99.90;;;;;;10422859;28;20524;-63
2022/10/25 20:29:25;;;;;;;6.00;3.10;;;15.20;99.90;;;;;;10429214;28;20071;-63
2022/10/25 20:34:26;;;;;;;6.63;3.25;;;15.20;99.90;;;;;;10439870;28;20072;-62
2022/10/25 20:39:27;;;;;;;6.53;3.33;;;15.20;99.90;;;;;;10441542;28;20053;-61
2022/10/25 20:44:27;;;;;;;6.72;2.97;;;15.20;99.90;;;;;;10444353;28;20047;-64
2022/10/25 20:49:28;;;;;;;8.18;3.33;;;15.10;99.90;;;;;;10442452;28;20391;-62
2022/10/25 20:54:29;;;;;;;4.85;3.00;;;15.10;99.90;;;;;;10439889;28;20584;-62
2022/10/25 20:59:29;;;;;;;4.78;2.90;;;15.10;99.90;;;;;;10443998;28;20125;-62
2022/10/25 21:04:30;;;;;;;4.63;3.03;;;15.10;99.90;;;;;;10444836;28;20122;-62
2022/10/25 21:09:31;;;;;;;5.72;3.30;;;15.10;99.90;;;;;;10450618;28;20049;-62
2022/10/25 21:14:31;;;;;;;8.20;2.83;;;15.10;99.90;;;;;;10456862;28;20040;-63
2022/10/25 21:19:32;;;;;;;7.28;2.90;;;15.00;99.90;;;;;;10444723;28;20374;-63
2022/10/25 21:24:33;;;;;;;7.43;3.67;;;15.00;99.90;;;;;;10458724;28;20028;-63
2022/10/25 21:29:33;;;;;;;6.03;3.20;;;15.00;99.90;;;;;;10459937;28;20444;-62
2022/10/25 21:34:34;;;;;;;6.47;3.10;;;15.00;99.90;;;;;;10434603;28;20278;-63
2022/10/25 21:39:35;;;;;;;5.55;3.00;;;15.00;99.90;;;;;;10436345;28;20024;-62
2022/10/25 21:44:35;;;;;;;4.20;2.50;;;14.90;99.90;;;;;;10446525;28;20051;-63
2022/10/25 21:49:36;;;;;;;7.25;3.13;;;14.90;99.90;;;;;;10450764;28;20013;-61
2022/10/25 21:54:37;;;;;;;5.22;2.83;;;14.90;99.90;;;;;;10444538;28;20128;-60
2022/10/25 21:59:37;;;;;;;4.97;2.67;;;14.90;99.90;;;;;;10443834;28;20013;-63
2022/10/25 22:04:41;;;;;;;3.92;2.88;;;14.90;99.90;;;;;;10449584;28;20061;-61
2022/10/25 22:09:41;;;;;;;4.40;2.92;;;14.80;99.90;;;;;;10454109;28;20524;-60
2022/10/25 22:14:42;;;;;;;4.57;2.65;;;14.80;99.90;;;;;;10455182;28;20037;-60
2022/10/25 22:19:43;;;;;;;6.35;2.50;;;14.80;99.90;;;;;;10460705;28;20025;-62
2022/10/25 22:24:43;;;;;;;3.92;2.72;;;14.80;99.90;;;;;;10459112;28;20158;-62
2022/10/25 22:29:44;;;;;;;4.13;2.42;;;14.80;99.90;;;;;;10458852;28;20025;-62
2022/10/25 22:34:45;;;;;;;4.25;2.38;;;14.70;99.90;;;;;;10459656;28;20037;-62
2022/10/25 22:39:45;;;;;;;4.53;2.30;;;14.70;99.90;;;;;;10456823;28;20025;-62
2022/10/25 22:44:46;;;;;;;4.78;2.38;;;14.70;99.90;;;;;;10459449;28;20028;-62
2022/10/25 22:49:47;;;;;;;3.97;2.20;;;14.70;99.90;;;;;;10459312;28;20549;-62
2022/10/25 22:54:50;;;;;;;3.30;2.05;;;14.70;99.90;;;;;;10458569;28;20122;-61
2022/10/25 22:59:51;;;;;;;3.33;2.08;;;14.70;99.90;;;;;;10457893;28;20121;-63
2022/10/25 23:04:51;;;;;;;3.85;2.42;;;14.60;99.90;;;;;;10459251;28;20434;-63
2022/10/25 23:09:52;;;;;;;3.60;2.15;;;14.60;99.90;;;;;;10459446;28;20501;-69
2022/10/25 23:14:53;;;;;;;4.07;2.25;;;14.60;99.90;;;;;;10453185;28;20791;-62
2022/10/25 23:19:53;;;;;;;2.97;2.33;;;14.60;99.90;;;;;;10459755;28;20172;-63
2022/10/25 23:24:54;;;;;;;3.03;2.30;;;14.60;99.90;;;;;;10452809;28;20362;-64
2022/10/25 23:29:55;;;;;;;4.45;2.38;;;14.60;99.90;;;;;;10452548;28;20378;-64
2022/10/25 23:34:55;;;;;;;4.30;2.40;;;14.60;99.90;;;;;;10459477;28;20379;-62
2022/10/25 23:39:56;;;;;;;3.05;2.47;;;14.50;99.90;;;;;;10454158;28;20401;-62
2022/10/25 23:44:57;;;;;;;4.30;2.38;;;14.60;99.90;;;;;;10457601;28;20478;-62
2022/10/25 23:49:57;;;;;;;4.25;2.58;;;14.50;99.90;;;;;;10456791;28;20025;-64
2022/10/25 23:54:58;;;;;;;4.45;2.30;;;14.50;99.90;;;;;;10452384;28;20045;-62
2022/10/25 23:59:59;;;;;;;4.07;2.42;;;14.50;99.90;;;;;;10457046;28;20753;-62
